Auburn, NE (68305)

5:50 AM CDT on May 24, 2017 (GMT -0500)
Butler's backyard | | Change Station
Active Advisory: Flood Warning

Elev 1322 ft 40.38 °N, 95.85 °W | Updated 47 seconds ago

Overcast
Overcast
49.6 °F
Feels Like 50 °F
N
0.0
Wind Variable Wind from ESE

Today
High -- | Low -- °F
--% Chance of Precip.
Yesterday
High -- | Low -- °F
Precip. -- in
Pressure 29.76 in
Visibility 10.0 miles
Clouds Mostly Cloudy 5000 ft
Overcast 6500 ft
Windchill 50 °F
Dew Point 46 °F
Humidity 90%
Rainfall 0.00 in
Snow Depth Not available.
5:59 AM 8:41 PM
Waning Crescent, 3% visible
METAR KAFK 241035Z AUTO 34010G15KT 10SM BKN050 OVC065 10/08 A2976 RMK AO2 T01030080
Pressure 29.76 in
Visibility 10.0 miles
Clouds Mostly Cloudy 5000 ft
Overcast 6500 ft
Windchill 50 °F
Dew Point 46 °F
Humidity 90%
Rainfall 0.00 in
Snow Depth Not available.
5:59 AM 8:41 PM
Waning Crescent, 3% visible
METAR KAFK 241035Z AUTO 34010G15KT 10SM BKN050 OVC065 10/08 A2976 RMK AO2 T01030080

Get Your Daily Forecast Email!

Thanks for signing up!

Be on the lookout for a verification email in your inbox.

You'll start receiving severe weather alerts in your inbox..

×

10-Day Weather Forecast

Almanac

Astronomy

May. 24, 2017 Rise Set
Actual Time
Civil Twilight
Nautical Twilight
Astronomical Twilight
Moon
Length of Visible Light
Length of Day
Tomorrow will be .
, % of the Moon is Illuminated

Today's Extremes

State Highs State Lows

Community

WunderPhotos

Category 6

Welcome to Category 6. This is the collective home for Weather Underground's featured writeups by Dr. Jeff Masters (right), Bob Henson (left), Chris Burt, and other regular contributors.

Nearby

Air Quality

  Air Quality AQ Index Pollutant
Not available.

Snow Depth

Station Depth Elevation

Earthquake Activity

City Distance Mag. Time & Date
Minimum magnitude displayed is 2.5.

Coastal Water Temperatures

Place Temperature

Stations

Nearby Weather Stations

Station Location Temp. Windchill Dew Point Humidity Wind Precip. Elev Updated Type
                   

Watches & Warnings

Flood Warning
Issued: 9:21 PM CDT May. 23, 2017 – National Weather Service

The Flood Warning continues for
the Missouri River at Brownville.
* At 8:15 PM Tuesday the stage was 34.6 feet... or 1.6 feet above
flood stage.
* Flood stage is 33.0 feet.
* Minor flooding is occurring and minor flooding is forecast.
* Forecast... the river will continue to fall to below flood stage by
late tomorrow evening.
* Impact... at 33.0 feet... lowlands on both banks begin to flood.


Lat... Lon 4048 9580 4048 9554 4026 9544 4026 9563
      4044 9574